sensor_id;sensor_type;location;lat;lon;timestamp;pressure;altitude;pressure_sealevel;temperature;humidity
68077;BME280;54866;53.458;14.540;2023-04-30T00:00:51;101030.67;;;5.42;82.41
68077;BME280;54866;53.458;14.540;2023-04-30T00:03:21;101035.01;;;5.36;82.66
68077;BME280;54866;53.458;14.540;2023-04-30T00:05:52;101031.30;;;5.30;82.99
68077;BME280;54866;53.458;14.540;2023-04-30T00:08:21;101035.45;;;5.24;83.02
68077;BME280;54866;53.458;14.540;2023-04-30T00:10:51;101040.58;;;5.19;83.27
68077;BME280;54866;53.458;14.540;2023-04-30T00:13:20;101045.59;;;5.13;83.46
68077;BME280;54866;53.458;14.540;2023-04-30T00:15:50;101048.42;;;5.09;83.55
68077;BME280;54866;53.458;14.540;2023-04-30T00:18:19;101048.16;;;5.04;83.87
68077;BME280;54866;53.458;14.540;2023-04-30T00:20:49;101044.19;;;4.99;84.21
68077;BME280;54866;53.458;14.540;2023-04-30T00:23:20;101046.20;;;4.94;84.29
68077;BME280;54866;53.458;14.540;2023-04-30T00:25:50;101046.78;;;4.90;84.58
68077;BME280;54866;53.458;14.540;2023-04-30T00:28:19;101052.61;;;4.84;84.74
68077;BME280;54866;53.458;14.540;2023-04-30T00:30:49;101056.38;;;4.78;84.90
68077;BME280;54866;53.458;14.540;2023-04-30T00:33:18;101054.74;;;4.73;85.07
68077;BME280;54866;53.458;14.540;2023-04-30T00:35:48;101054.08;;;4.68;85.33
68077;BME280;54866;53.458;14.540;2023-04-30T00:38:18;101050.41;;;4.64;85.64
68077;BME280;54866;53.458;14.540;2023-04-30T00:40:47;101052.70;;;4.61;85.86
68077;BME280;54866;53.458;14.540;2023-04-30T00:43:17;101056.96;;;4.56;85.87
68077;BME280;54866;53.458;14.540;2023-04-30T00:45:46;101063.07;;;4.52;86.32
68077;BME280;54866;53.458;14.540;2023-04-30T00:48:16;101060.67;;;4.46;86.23
68077;BME280;54866;53.458;14.540;2023-04-30T00:50:46;101068.91;;;4.42;86.49
68077;BME280;54866;53.458;14.540;2023-04-30T00:53:17;101072.46;;;4.37;86.72
68077;BME280;54866;53.458;14.540;2023-04-30T00:55:48;101071.48;;;4.32;86.67
68077;BME280;54866;53.458;14.540;2023-04-30T00:58:18;101068.23;;;4.27;86.94
68077;BME280;54866;53.458;14.540;2023-04-30T01:00:49;101074.73;;;4.22;87.01
68077;BME280;54866;53.458;14.540;2023-04-30T01:03:19;101083.83;;;4.18;87.36
68077;BME280;54866;53.458;14.540;2023-04-30T01:05:49;101085.80;;;4.12;87.23
68077;BME280;54866;53.458;14.540;2023-04-30T01:08:21;101082.73;;;4.08;87.69
68077;BME280;54866;53.458;14.540;2023-04-30T01:10:55;101080.46;;;4.04;87.70
68077;BME280;54866;53.458;14.540;2023-04-30T01:13:33;101084.67;;;3.99;87.81
68077;BME280;54866;53.458;14.540;2023-04-30T01:16:12;101085.07;;;3.94;87.78
68077;BME280;54866;53.458;14.540;2023-04-30T01:18:47;101083.52;;;3.90;88.36
68077;BME280;54866;53.458;14.540;2023-04-30T01:21:18;101086.66;;;3.86;88.41
68077;BME280;54866;53.458;14.540;2023-04-30T01:24:09;101093.41;;;3.83;88.43
68077;BME280;54866;53.458;14.540;2023-04-30T01:26:57;101093.41;;;3.79;88.45
68077;BME280;54866;53.458;14.540;2023-04-30T01:29:28;101091.21;;;3.73;88.62
68077;BME280;54866;53.458;14.540;2023-04-30T01:31:58;101094.05;;;3.68;88.93
68077;BME280;54866;53.458;14.540;2023-04-30T01:34:29;101094.11;;;3.62;88.97
68077;BME280;54866;53.458;14.540;2023-04-30T01:37:09;101100.61;;;3.61;89.16
68077;BME280;54866;53.458;14.540;2023-04-30T01:39:53;101097.48;;;3.57;89.37
68077;BME280;54866;53.458;14.540;2023-04-30T01:42:28;101098.23;;;3.52;88.92
68077;BME280;54866;53.458;14.540;2023-04-30T01:45:17;101103.99;;;3.47;89.45
68077;BME280;54866;53.458;14.540;2023-04-30T01:47:54;101108.71;;;3.43;89.45
68077;BME280;54866;53.458;14.540;2023-04-30T01:50:31;101102.15;;;3.38;89.35
68077;BME280;54866;53.458;14.540;2023-04-30T01:53:05;101105.64;;;3.33;89.82
68077;BME280;54866;53.458;14.540;2023-04-30T01:55:37;101108.56;;;3.30;90.00
68077;BME280;54866;53.458;14.540;2023-04-30T01:58:12;101110.27;;;3.26;89.89
68077;BME280;54866;53.458;14.540;2023-04-30T02:00:43;101116.21;;;3.22;90.02
68077;BME280;54866;53.458;14.540;2023-04-30T02:03:13;101115.13;;;3.18;90.26
68077;BME280;54866;53.458;14.540;2023-04-30T02:05:43;101119.70;;;3.13;90.62
68077;BME280;54866;53.458;14.540;2023-04-30T02:08:12;101118.14;;;3.08;90.61
68077;BME280;54866;53.458;14.540;2023-04-30T02:10:42;101124.59;;;3.04;91.09
68077;BME280;54866;53.458;14.540;2023-04-30T02:13:11;101129.13;;;2.99;91.30
68077;BME280;54866;53.458;14.540;2023-04-30T02:15:41;101124.41;;;2.96;91.51
68077;BME280;54866;53.458;14.540;2023-04-30T02:18:10;101131.50;;;2.92;92.28
68077;BME280;54866;53.458;14.540;2023-04-30T02:20:40;101129.63;;;2.91;92.74
68077;BME280;54866;53.458;14.540;2023-04-30T02:23:09;101129.86;;;2.89;92.67
68077;BME280;54866;53.458;14.540;2023-04-30T02:25:39;101138.81;;;2.88;92.82
68077;BME280;54866;53.458;14.540;2023-04-30T02:28:09;101140.76;;;2.87;92.98
68077;BME280;54866;53.458;14.540;2023-04-30T02:30:39;101144.81;;;2.86;93.21
68077;BME280;54866;53.458;14.540;2023-04-30T02:33:09;101142.30;;;2.83;93.10
68077;BME280;54866;53.458;14.540;2023-04-30T02:35:40;101147.59;;;2.82;93.50
68077;BME280;54866;53.458;14.540;2023-04-30T02:38:09;101152.52;;;2.80;93.41
68077;BME280;54866;53.458;14.540;2023-04-30T02:40:39;101151.75;;;2.77;93.21
68077;BME280;54866;53.458;14.540;2023-04-30T02:43:08;101149.60;;;2.74;93.35
68077;BME280;54866;53.458;14.540;2023-04-30T02:45:38;101158.55;;;2.72;93.34
68077;BME280;54866;53.458;14.540;2023-04-30T02:48:08;101157.89;;;2.67;93.31
68077;BME280;54866;53.458;14.540;2023-04-30T02:50:38;101158.05;;;2.63;93.47
68077;BME280;54866;53.458;14.540;2023-04-30T02:53:07;101159.09;;;2.58;93.42
68077;BME280;54866;53.458;14.540;2023-04-30T02:55:37;101160.30;;;2.54;93.72
68077;BME280;54866;53.458;14.540;2023-04-30T02:58:06;101164.62;;;2.50;93.92
68077;BME280;54866;53.458;14.540;2023-04-30T03:00:36;101166.17;;;2.46;93.89
68077;BME280;54866;53.458;14.540;2023-04-30T03:03:05;101169.41;;;2.42;94.00
68077;BME280;54866;53.458;14.540;2023-04-30T03:05:35;101169.23;;;2.37;94.23
68077;BME280;54866;53.458;14.540;2023-04-30T03:08:04;101173.73;;;2.33;94.43
68077;BME280;54866;53.458;14.540;2023-04-30T03:10:34;101170.45;;;2.29;94.63
68077;BME280;54866;53.458;14.540;2023-04-30T03:13:03;101174.04;;;2.26;95.06
68077;BME280;54866;53.458;14.540;2023-04-30T03:15:34;101174.41;;;2.25;95.43
68077;BME280;54866;53.458;14.540;2023-04-30T03:18:03;101178.62;;;2.23;95.48
68077;BME280;54866;53.458;14.540;2023-04-30T03:20:33;101175.28;;;2.25;96.37
68077;BME280;54866;53.458;14.540;2023-04-30T03:23:02;101178.02;;;2.25;96.63
68077;BME280;54866;53.458;14.540;2023-04-30T03:25:32;101186.17;;;2.27;96.39
68077;BME280;54866;53.458;14.540;2023-04-30T03:28:01;101185.63;;;2.27;96.47
68077;BME280;54866;53.458;14.540;2023-04-30T03:30:31;101189.13;;;2.27;96.51
68077;BME280;54866;53.458;14.540;2023-04-30T03:33:01;101193.63;;;2.27;96.88
68077;BME280;54866;53.458;14.540;2023-04-30T03:35:30;101188.18;;;2.29;97.27
68077;BME280;54866;53.458;14.540;2023-04-30T03:38:00;101191.10;;;2.30;97.01
68077;BME280;54866;53.458;14.540;2023-04-30T03:40:29;101194.34;;;2.31;97.09
68077;BME280;54866;53.458;14.540;2023-04-30T03:42:59;101196.70;;;2.33;97.30
68077;BME280;54866;53.458;14.540;2023-04-30T03:45:28;101195.95;;;2.35;97.20
68077;BME280;54866;53.458;14.540;2023-04-30T03:47:58;101200.43;;;2.36;97.39
68077;BME280;54866;53.458;14.540;2023-04-30T03:50:28;101201.59;;;2.37;97.50
68077;BME280;54866;53.458;14.540;2023-04-30T03:52:58;101199.10;;;2.39;97.40
68077;BME280;54866;53.458;14.540;2023-04-30T03:55:28;101198.64;;;2.42;97.22
68077;BME280;54866;53.458;14.540;2023-04-30T03:57:57;101203.92;;;2.46;97.51
68077;BME280;54866;53.458;14.540;2023-04-30T04:00:27;101211.64;;;2.49;97.32
68077;BME280;54866;53.458;14.540;2023-04-30T04:02:58;101217.80;;;2.51;97.02
68077;BME280;54866;53.458;14.540;2023-04-30T04:05:27;101220.66;;;2.54;97.00
68077;BME280;54866;53.458;14.540;2023-04-30T04:07:57;101223.65;;;2.57;97.02
68077;BME280;54866;53.458;14.540;2023-04-30T04:10:27;101226.15;;;2.61;97.01
68077;BME280;54866;53.458;14.540;2023-04-30T04:12:57;101223.41;;;2.64;96.98
68077;BME280;54866;53.458;14.540;2023-04-30T04:15:26;101228.08;;;2.69;96.69
68077;BME280;54866;53.458;14.540;2023-04-30T04:17:56;101231.20;;;2.74;96.76
68077;BME280;54866;53.458;14.540;2023-04-30T04:20:25;101237.28;;;2.80;96.45
68077;BME280;54866;53.458;14.540;2023-04-30T04:22:57;101238.63;;;2.85;95.97
68077;BME280;54866;53.458;14.540;2023-04-30T04:25:26;101242.56;;;2.91;95.91
68077;BME280;54866;53.458;14.540;2023-04-30T04:27:56;101248.09;;;2.97;95.91
68077;BME280;54866;53.458;14.540;2023-04-30T04:30:25;101248.69;;;3.05;95.60
68077;BME280;54866;53.458;14.540;2023-04-30T04:32:55;101249.77;;;3.12;95.08
68077;BME280;54866;53.458;14.540;2023-04-30T04:35:24;101247.52;;;3.21;95.12
68077;BME280;54866;53.458;14.540;2023-04-30T04:37:54;101257.12;;;3.29;94.62
68077;BME280;54866;53.458;14.540;2023-04-30T04:40:23;101253.14;;;3.38;94.32
68077;BME280;54866;53.458;14.540;2023-04-30T04:42:53;101256.05;;;3.48;94.05
68077;BME280;54866;53.458;14.540;2023-04-30T04:45:23;101262.42;;;3.58;93.75
68077;BME280;54866;53.458;14.540;2023-04-30T04:47:52;101261.94;;;3.67;93.23
68077;BME280;54866;53.458;14.540;2023-04-30T04:50:22;101264.16;;;3.76;93.07
68077;BME280;54866;53.458;14.540;2023-04-30T04:52:51;101263.98;;;3.84;92.71
68077;BME280;54866;53.458;14.540;2023-04-30T04:55:21;101266.70;;;3.94;92.39
68077;BME280;54866;53.458;14.540;2023-04-30T04:57:51;101264.07;;;4.04;91.86
68077;BME280;54866;53.458;14.540;2023-04-30T05:00:21;101265.55;;;4.13;91.67
68077;BME280;54866;53.458;14.540;2023-04-30T05:02:50;101268.66;;;4.23;91.15
68077;BME280;54866;53.458;14.540;2023-04-30T05:05:20;101270.41;;;4.35;90.76
68077;BME280;54866;53.458;14.540;2023-04-30T05:07:50;101278.91;;;4.47;90.27
68077;BME280;54866;53.458;14.540;2023-04-30T05:10:22;101281.20;;;4.59;89.83
68077;BME280;54866;53.458;14.540;2023-04-30T05:12:51;101283.36;;;4.73;89.44
68077;BME280;54866;53.458;14.540;2023-04-30T05:15:21;101282.14;;;4.89;88.74
68077;BME280;54866;53.458;14.540;2023-04-30T05:17:50;101285.53;;;5.02;87.80
68077;BME280;54866;53.458;14.540;2023-04-30T05:20:20;101289.07;;;5.17;87.38
68077;BME280;54866;53.458;14.540;2023-04-30T05:22:49;101295.19;;;5.43;86.79
68077;BME280;54866;53.458;14.540;2023-04-30T05:25:19;101289.86;;;6.60;84.18
68077;BME280;54866;53.458;14.540;2023-04-30T05:27:48;101289.95;;;9.03;78.27
68077;BME280;54866;53.458;14.540;2023-04-30T05:30:18;101289.02;;;11.21;70.77
68077;BME280;54866;53.458;14.540;2023-04-30T05:32:48;101289.02;;;13.13;65.87
68077;BME280;54866;53.458;14.540;2023-04-30T05:35:20;101284.02;;;14.76;58.63
68077;BME280;54866;53.458;14.540;2023-04-30T05:37:49;101291.64;;;16.04;52.02
68077;BME280;54866;53.458;14.540;2023-04-30T05:40:19;101288.64;;;17.18;50.89
68077;BME280;54866;53.458;14.540;2023-04-30T05:42:49;101294.80;;;18.02;45.02
68077;BME280;54866;53.458;14.540;2023-04-30T05:45:18;101294.34;;;18.92;44.49
68077;BME280;54866;53.458;14.540;2023-04-30T05:47:48;101293.69;;;19.87;41.38
68077;BME280;54866;53.458;14.540;2023-04-30T05:50:18;101286.45;;;20.45;37.61
68077;BME280;54866;53.458;14.540;2023-04-30T05:52:47;101295.44;;;20.78;36.99
68077;BME280;54866;53.458;14.540;2023-04-30T05:55:17;101298.02;;;21.27;36.51
68077;BME280;54866;53.458;14.540;2023-04-30T05:57:46;101297.99;;;22.03;35.10
68077;BME280;54866;53.458;14.540;2023-04-30T06:00:16;101297.02;;;22.32;33.62
68077;BME280;54866;53.458;14.540;2023-04-30T06:02:46;101292.38;;;22.82;32.19
68077;BME280;54866;53.458;14.540;2023-04-30T06:05:16;101295.95;;;23.23;31.08
68077;BME280;54866;53.458;14.540;2023-04-30T06:07:45;101298.85;;;23.39;29.81
68077;BME280;54866;53.458;14.540;2023-04-30T06:10:15;101301.36;;;23.64;30.31
68077;BME280;54866;53.458;14.540;2023-04-30T06:12:44;101304.87;;;24.01;29.24
68077;BME280;54866;53.458;14.540;2023-04-30T06:15:14;101308.91;;;24.27;28.72
68077;BME280;54866;53.458;14.540;2023-04-30T06:17:43;101309.86;;;24.45;27.81
68077;BME280;54866;53.458;14.540;2023-04-30T06:20:13;101312.67;;;24.93;28.00
68077;BME280;54866;53.458;14.540;2023-04-30T06:22:43;101307.82;;;25.14;26.01
68077;BME280;54866;53.458;14.540;2023-04-30T06:25:13;101307.61;;;25.24;26.80
68077;BME280;54866;53.458;14.540;2023-04-30T06:27:42;101307.21;;;25.47;24.97
68077;BME280;54866;53.458;14.540;2023-04-30T06:30:13;101304.81;;;25.71;25.55
68077;BME280;54866;53.458;14.540;2023-04-30T06:32:42;101303.81;;;26.09;25.22
68077;BME280;54866;53.458;14.540;2023-04-30T06:35:12;101303.61;;;26.66;25.27
68077;BME280;54866;53.458;14.540;2023-04-30T06:37:42;101300.20;;;26.99;23.46
68077;BME280;54866;53.458;14.540;2023-04-30T06:40:12;101300.73;;;27.27;24.18
68077;BME280;54866;53.458;14.540;2023-04-30T06:42:41;101300.30;;;27.71;23.46
68077;BME280;54866;53.458;14.540;2023-04-30T06:45:12;101299.48;;;27.54;21.70
68077;BME280;54866;53.458;14.540;2023-04-30T06:47:42;101299.11;;;26.95;21.50
68077;BME280;54866;53.458;14.540;2023-04-30T06:50:13;101313.66;;;26.47;22.22
68077;BME280;54866;53.458;14.540;2023-04-30T06:52:43;101314.39;;;26.36;21.78
68077;BME280;54866;53.458;14.540;2023-04-30T06:55:13;101311.44;;;26.42;22.72
68077;BME280;54866;53.458;14.540;2023-04-30T06:57:43;101311.98;;;26.29;21.79
68077;BME280;54866;53.458;14.540;2023-04-30T07:00:13;101316.48;;;26.14;22.79
68077;BME280;54866;53.458;14.540;2023-04-30T07:02:43;101319.73;;;25.40;24.05
68077;BME280;54866;53.458;14.540;2023-04-30T07:05:15;101325.10;;;23.96;25.43
68077;BME280;54866;53.458;14.540;2023-04-30T07:07:44;101328.16;;;22.53;25.84
68077;BME280;54866;53.458;14.540;2023-04-30T07:10:14;101345.20;;;20.75;27.61
68077;BME280;54866;53.458;14.540;2023-04-30T07:12:44;101347.60;;;19.20;29.42
68077;BME280;54866;53.458;14.540;2023-04-30T07:15:13;101345.21;;;18.13;30.64
68077;BME280;54866;53.458;14.540;2023-04-30T07:17:43;101345.33;;;17.15;31.97
68077;BME280;54866;53.458;14.540;2023-04-30T07:20:13;101357.36;;;16.30;33.51
68077;BME280;54866;53.458;14.540;2023-04-30T07:22:43;101356.24;;;15.82;34.91
68077;BME280;54866;53.458;14.540;2023-04-30T07:25:13;101359.58;;;15.34;35.18
68077;BME280;54866;53.458;14.540;2023-04-30T07:27:43;101365.36;;;14.90;36.08
68077;BME280;54866;53.458;14.540;2023-04-30T07:30:13;101369.98;;;14.59;37.13
68077;BME280;54866;53.458;14.540;2023-04-30T07:32:42;101370.07;;;14.40;38.01
68077;BME280;54866;53.458;14.540;2023-04-30T07:35:12;101369.23;;;14.32;38.17
68077;BME280;54866;53.458;14.540;2023-04-30T07:37:41;101364.21;;;14.34;38.40
68077;BME280;54866;53.458;14.540;2023-04-30T07:40:12;101370.45;;;14.32;38.53
68077;BME280;54866;53.458;14.540;2023-04-30T07:42:42;101370.71;;;14.09;38.91
68077;BME280;54866;53.458;14.540;2023-04-30T07:45:12;101377.69;;;14.17;38.74
68077;BME280;54866;53.458;14.540;2023-04-30T07:47:42;101379.20;;;14.33;38.71
68077;BME280;54866;53.458;14.540;2023-04-30T07:50:12;101381.86;;;14.05;37.58
68077;BME280;54866;53.458;14.540;2023-04-30T07:52:42;101387.87;;;13.93;38.64
68077;BME280;54866;53.458;14.540;2023-04-30T07:55:12;101388.39;;;13.99;39.43
68077;BME280;54866;53.458;14.540;2023-04-30T07:57:42;101386.06;;;14.06;38.81
68077;BME280;54866;53.458;14.540;2023-04-30T08:00:13;101388.77;;;14.03;37.88
68077;BME280;54866;53.458;14.540;2023-04-30T08:02:44;101397.45;;;14.11;37.15
68077;BME280;54866;53.458;14.540;2023-04-30T08:05:15;101395.36;;;14.03;36.74
68077;BME280;54866;53.458;14.540;2023-04-30T08:07:45;101393.48;;;13.89;37.06
68077;BME280;54866;53.458;14.540;2023-04-30T08:10:14;101395.43;;;14.12;37.08
68077;BME280;54866;53.458;14.540;2023-04-30T08:12:44;101405.18;;;14.30;37.24
68077;BME280;54866;53.458;14.540;2023-04-30T08:15:14;101398.61;;;14.77;36.88
68077;BME280;54866;53.458;14.540;2023-04-30T08:17:43;101396.39;;;14.61;35.87
68077;BME280;54866;53.458;14.540;2023-04-30T08:20:13;101395.20;;;14.15;37.36
68077;BME280;54866;53.458;14.540;2023-04-30T08:22:43;101395.17;;;14.31;37.60
68077;BME280;54866;53.458;14.540;2023-04-30T08:25:12;101387.44;;;14.36;37.02
68077;BME280;54866;53.458;14.540;2023-04-30T08:27:42;101398.98;;;14.43;37.16
68077;BME280;54866;53.458;14.540;2023-04-30T08:30:12;101397.98;;;14.65;37.37
68077;BME280;54866;53.458;14.540;2023-04-30T08:32:41;101400.98;;;15.22;36.65
68077;BME280;54866;53.458;14.540;2023-04-30T08:35:11;101402.23;;;15.90;35.52
68077;BME280;54866;53.458;14.540;2023-04-30T08:37:41;101404.23;;;16.58;33.58
68077;BME280;54866;53.458;14.540;2023-04-30T08:40:11;101403.09;;;17.48;32.58
68077;BME280;54866;53.458;14.540;2023-04-30T08:42:49;101402.86;;;18.11;30.98
68077;BME280;54866;53.458;14.540;2023-04-30T08:45:22;101401.69;;;18.89;30.98
68077;BME280;54866;53.458;14.540;2023-04-30T08:47:52;101398.75;;;19.46;30.88
68077;BME280;54866;53.458;14.540;2023-04-30T08:50:24;101403.70;;;20.38;29.70
68077;BME280;54866;53.458;14.540;2023-04-30T08:52:54;101403.63;;;21.07;28.09
68077;BME280;54866;53.458;14.540;2023-04-30T08:55:24;101408.65;;;20.35;28.07
68077;BME280;54866;53.458;14.540;2023-04-30T08:57:53;101418.77;;;19.27;28.07
68077;BME280;54866;53.458;14.540;2023-04-30T09:00:23;101417.36;;;19.90;28.04
68077;BME280;54866;53.458;14.540;2023-04-30T09:02:54;101417.20;;;20.36;27.31
68077;BME280;54866;53.458;14.540;2023-04-30T09:05:23;101412.80;;;20.58;26.58
68077;BME280;54866;53.458;14.540;2023-04-30T09:07:53;101406.02;;;21.05;26.74
68077;BME280;54866;53.458;14.540;2023-04-30T09:10:23;101412.86;;;21.31;26.90
68077;BME280;54866;53.458;14.540;2023-04-30T09:13:03;101413.16;;;21.85;26.89
68077;BME280;54866;53.458;14.540;2023-04-30T09:15:34;101412.55;;;22.80;25.62
68077;BME280;54866;53.458;14.540;2023-04-30T09:18:08;101410.85;;;23.48;23.50
68077;BME280;54866;53.458;14.540;2023-04-30T09:20:52;101413.06;;;24.26;24.02
68077;BME280;54866;53.458;14.540;2023-04-30T09:23:22;101416.35;;;24.90;21.34
68077;BME280;54866;53.458;14.540;2023-04-30T09:25:52;101407.59;;;24.68;21.35
68077;BME280;54866;53.458;14.540;2023-04-30T09:28:21;101402.39;;;24.47;21.10
68077;BME280;54866;53.458;14.540;2023-04-30T09:30:56;101408.71;;;23.93;21.06
68077;BME280;54866;53.458;14.540;2023-04-30T09:33:26;101410.36;;;23.45;22.00
68077;BME280;54866;53.458;14.540;2023-04-30T09:35:57;101414.38;;;23.42;22.21
68077;BME280;54866;53.458;14.540;2023-04-30T09:38:36;101411.20;;;23.17;22.48
68077;BME280;54866;53.458;14.540;2023-04-30T09:41:06;101411.56;;;23.20;22.12
68077;BME280;54866;53.458;14.540;2023-04-30T09:43:49;101416.53;;;22.71;22.56
68077;BME280;54866;53.458;14.540;2023-04-30T09:46:21;101419.45;;;22.33;22.96
68077;BME280;54866;53.458;14.540;2023-04-30T09:48:58;101417.26;;;22.24;23.34
68077;BME280;54866;53.458;14.540;2023-04-30T09:51:28;101413.87;;;22.38;23.07
68077;BME280;54866;53.458;14.540;2023-04-30T09:53:58;101409.11;;;21.64;23.32
68077;BME280;54866;53.458;14.540;2023-04-30T09:56:32;101410.73;;;21.25;24.30
68077;BME280;54866;53.458;14.540;2023-04-30T09:59:02;101408.13;;;21.36;24.81
68077;BME280;54866;53.458;14.540;2023-04-30T10:01:34;101408.46;;;21.78;24.66
68077;BME280;54866;53.458;14.540;2023-04-30T10:04:05;101403.67;;;22.37;24.94
68077;BME280;54866;53.458;14.540;2023-04-30T10:06:35;101403.48;;;22.62;23.96
68077;BME280;54866;53.458;14.540;2023-04-30T10:09:06;101401.80;;;22.42;24.46
68077;BME280;54866;53.458;14.540;2023-04-30T10:11:39;101401.86;;;22.54;25.12
68077;BME280;54866;53.458;14.540;2023-04-30T10:14:11;101401.71;;;22.69;24.70
68077;BME280;54866;53.458;14.540;2023-04-30T10:16:46;101397.50;;;23.03;24.10
68077;BME280;54866;53.458;14.540;2023-04-30T10:19:21;101399.14;;;23.01;23.81
68077;BME280;54866;53.458;14.540;2023-04-30T10:21:51;101398.00;;;23.13;23.75
68077;BME280;54866;53.458;14.540;2023-04-30T10:24:21;101393.96;;;23.01;23.01
68077;BME280;54866;53.458;14.540;2023-04-30T10:26:51;101394.55;;;22.04;24.25
68077;BME280;54866;53.458;14.540;2023-04-30T10:29:21;101388.63;;;22.15;24.72
68077;BME280;54866;53.458;14.540;2023-04-30T10:31:51;101388.02;;;21.69;24.13
68077;BME280;54866;53.458;14.540;2023-04-30T10:34:40;101386.18;;;21.14;24.50
68077;BME280;54866;53.458;14.540;2023-04-30T10:37:17;101395.30;;;21.27;25.77
68077;BME280;54866;53.458;14.540;2023-04-30T10:39:50;101396.81;;;21.60;25.72
68077;BME280;54866;53.458;14.540;2023-04-30T10:42:20;101389.64;;;21.75;25.84
68077;BME280;54866;53.458;14.540;2023-04-30T10:44:49;101383.63;;;21.53;25.59
68077;BME280;54866;53.458;14.540;2023-04-30T10:47:19;101382.90;;;21.50;25.49
68077;BME280;54866;53.458;14.540;2023-04-30T10:49:49;101388.22;;;20.85;25.15
68077;BME280;54866;53.458;14.540;2023-04-30T10:52:29;101387.42;;;20.00;26.02
68077;BME280;54866;53.458;14.540;2023-04-30T10:54:59;101390.80;;;20.07;27.36
68077;BME280;54866;53.458;14.540;2023-04-30T10:57:37;101390.14;;;20.54;27.45
68077;BME280;54866;53.458;14.540;2023-04-30T11:00:25;101396.70;;;20.92;26.77
68077;BME280;54866;53.458;14.540;2023-04-30T11:03:02;101389.92;;;20.84;26.42
68077;BME280;54866;53.458;14.540;2023-04-30T11:05:36;101383.70;;;20.87;25.71
68077;BME280;54866;53.458;14.540;2023-04-30T11:08:06;101391.44;;;20.83;26.25
68077;BME280;54866;53.458;14.540;2023-04-30T11:10:42;101384.39;;;20.71;25.87
68077;BME280;54866;53.458;14.540;2023-04-30T11:13:26;101387.48;;;20.53;26.80
68077;BME280;54866;53.458;14.540;2023-04-30T11:16:02;101382.53;;;20.60;27.50
68077;BME280;54866;53.458;14.540;2023-04-30T11:18:33;101391.43;;;20.78;27.18
68077;BME280;54866;53.458;14.540;2023-04-30T11:21:02;101391.60;;;20.88;27.41
68077;BME280;54866;53.458;14.540;2023-04-30T11:23:34;101393.70;;;20.64;27.01
68077;BME280;54866;53.458;14.540;2023-04-30T11:26:03;101390.84;;;20.63;26.74
68077;BME280;54866;53.458;14.540;2023-04-30T11:28:37;101387.51;;;20.64;26.10
68077;BME280;54866;53.458;14.540;2023-04-30T11:31:07;101387.18;;;20.26;26.23
68077;BME280;54866;53.458;14.540;2023-04-30T11:33:39;101386.38;;;19.98;27.45
68077;BME280;54866;53.458;14.540;2023-04-30T11:36:08;101390.55;;;19.89;27.88
68077;BME280;54866;53.458;14.540;2023-04-30T11:38:38;101394.27;;;19.78;28.00
68077;BME280;54866;53.458;14.540;2023-04-30T11:41:12;101392.63;;;19.67;28.55
68077;BME280;54866;53.458;14.540;2023-04-30T11:43:40;101394.87;;;19.55;28.23
68077;BME280;54866;53.458;14.540;2023-04-30T11:46:10;101399.66;;;19.44;29.31
68077;BME280;54866;53.458;14.540;2023-04-30T11:48:42;101396.20;;;19.82;28.60
68077;BME280;54866;53.458;14.540;2023-04-30T11:51:24;101396.64;;;19.86;28.34
68077;BME280;54866;53.458;14.540;2023-04-30T11:53:54;101395.11;;;19.90;27.31
68077;BME280;54866;53.458;14.540;2023-04-30T11:56:24;101395.52;;;19.93;28.27
68077;BME280;54866;53.458;14.540;2023-04-30T11:58:55;101397.95;;;19.78;28.10
68077;BME280;54866;53.458;14.540;2023-04-30T12:01:27;101397.45;;;19.92;28.56
68077;BME280;54866;53.458;14.540;2023-04-30T12:03:57;101392.83;;;19.80;28.48
68077;BME280;54866;53.458;14.540;2023-04-30T12:06:27;101387.06;;;19.77;28.27
68077;BME280;54866;53.458;14.540;2023-04-30T12:08:59;101387.11;;;19.23;27.91
68077;BME280;54866;53.458;14.540;2023-04-30T12:11:32;101390.98;;;18.90;28.92
68077;BME280;54866;53.458;14.540;2023-04-30T12:14:04;101390.11;;;18.60;28.95
68077;BME280;54866;53.458;14.540;2023-04-30T12:16:42;101393.59;;;18.62;29.06
68077;BME280;54866;53.458;14.540;2023-04-30T12:19:17;101395.24;;;18.99;28.97
68077;BME280;54866;53.458;14.540;2023-04-30T12:21:47;101395.39;;;19.36;28.41
68077;BME280;54866;53.458;14.540;2023-04-30T12:24:19;101396.94;;;19.36;28.91
68077;BME280;54866;53.458;14.540;2023-04-30T12:26:53;101391.89;;;19.79;28.68
68077;BME280;54866;53.458;14.540;2023-04-30T12:29:23;101382.13;;;19.90;26.89
68077;BME280;54866;53.458;14.540;2023-04-30T12:31:54;101386.83;;;19.67;27.54
68077;BME280;54866;53.458;14.540;2023-04-30T12:34:27;101385.34;;;19.57;27.94
68077;BME280;54866;53.458;14.540;2023-04-30T12:36:56;101381.91;;;19.80;27.23
68077;BME280;54866;53.458;14.540;2023-04-30T12:39:31;101381.62;;;19.84;26.64
68077;BME280;54866;53.458;14.540;2023-04-30T12:42:01;101381.89;;;20.00;26.75
68077;BME280;54866;53.458;14.540;2023-04-30T12:44:32;101380.61;;;19.74;27.98
68077;BME280;54866;53.458;14.540;2023-04-30T12:47:10;101375.82;;;19.39;28.21
68077;BME280;54866;53.458;14.540;2023-04-30T12:49:42;101381.05;;;19.13;28.35
68077;BME280;54866;53.458;14.540;2023-04-30T12:52:14;101382.25;;;19.09;28.76
68077;BME280;54866;53.458;14.540;2023-04-30T12:54:43;101381.02;;;19.00;28.87
68077;BME280;54866;53.458;14.540;2023-04-30T12:57:13;101379.36;;;18.69;29.13
68077;BME280;54866;53.458;14.540;2023-04-30T12:59:58;101383.17;;;18.61;29.54
68077;BME280;54866;53.458;14.540;2023-04-30T13:02:29;101379.06;;;18.82;28.83
68077;BME280;54866;53.458;14.540;2023-04-30T13:04:59;101374.52;;;18.53;28.83